Thunder radar more information blitzortung!


avis per Pluja more information rain snow radar


Visita la nostra xarxa de llocs de meteo:

Template documentation
and downloads

And another site



Rain From: 17-10-2018 23:00 Until: 18-10-2018 16:59 warning for: Rain Level: Yellow info button

Pagina Historial Weather Underground text

Diari Resum Marc 5, 2016 Unitats:  Mètric    Imperial   Tant
« Previous Dia
SegĂźent Dia »
Diari Setmana Mensual Anual Personalitzada
  Maxima: Minima: Media:
Temperatura: -17.8 °C -14.3 °C -11.4 °C
Punt de rosada: -17.8 °C -19.5 °C -18.3 °C
Humitat: Humidity % 35 % 42 %
Wind Speed: 0 km/h 3.1 km/h 15.3 km/h
RĂ fegues de vent: 0 km/h - -
Vent:- - SW
Pression baro: 0 hPa 33822.8 hPa -
Precipitacions: 0 mm    
Historical Graphs
 
 
Dades de taula per Marc 5, 2016
Temps Temperatura Punt de rosada Pression baro Vent Wind Speed RĂ fegues de vent Humitat Rainfall Rate (Hourly)
-17.8 °C -17.8 °C 0 hPa Calm     Humidity % 0 mm
00:00 -13.6 °C -18.4 °C 33856.6 hPa WSW 15.6 km/h 15.6 km/h 54 % 0 mm
00:10 -13.7 °C -18.4 °C 33856.6 hPa WSW 15.6 km/h 20.8 km/h 55 % 0 mm
00:20 -13.8 °C -18.4 °C 33822.8 hPa WSW 12.9 km/h 25.9 km/h 56 % 0 mm
00:30 -13.9 °C -18.4 °C 33822.8 hPa West 7.7 km/h 25.9 km/h 57 % 0 mm
00:40 -14 °C -18.4 °C 33856.6 hPa WSW 7.7 km/h 15.6 km/h 57 % 0 mm
00:50 -14.1 °C -18.4 °C 33856.6 hPa WSW 5.1 km/h 12.9 km/h 57 % 0 mm
01:00 -14.1 °C -18.3 °C 33856.6 hPa WSW 5.1 km/h 10.3 km/h 58 % 0 mm
01:10 -14.1 °C -18.4 °C 33856.6 hPa SW 15.6 km/h 18.2 km/h 58 % 0 mm
01:20 -14.2 °C -18.4 °C 33856.6 hPa WSW 7.7 km/h 10.3 km/h 58 % 0 mm
01:30 -14.2 °C -18.5 °C 33856.6 hPa West 7.7 km/h 12.9 km/h 58 % 0 mm
01:40 -14.3 °C -18.6 °C 33856.6 hPa West 5.1 km/h 15.6 km/h 58 % 0 mm
01:50 -14.2 °C -18.5 °C 33890.5 hPa West 12.9 km/h 12.9 km/h 58 % 0 mm
02:00 -14.2 °C -18.4 °C 33890.5 hPa West 7.7 km/h 10.3 km/h 58 % 0 mm
02:10 -14.2 °C -18.6 °C 33924.3 hPa SW 12.9 km/h 15.6 km/h 57 % 0 mm
02:20 -14.1 °C -18.4 °C 33924.3 hPa SW 5.1 km/h 15.6 km/h 57 % 0 mm
02:30 -13.8 °C -18.2 °C 33924.3 hPa WSW 5.1 km/h 12.9 km/h 57 % 0 mm
02:40 -13.8 °C -18.3 °C 33924.3 hPa SW 7.7 km/h 20.8 km/h 56 % 0 mm
02:50 -13.7 °C -18.4 °C 33924.3 hPa SW 5.1 km/h 15.6 km/h 55 % 0 mm
03:00 -13.6 °C -18.3 °C 33924.3 hPa West 5.1 km/h 15.6 km/h 55 % 0 mm
03:10 -13.4 °C -18.2 °C 33924.3 hPa WSW 5.1 km/h 20.8 km/h 54 % 0 mm
03:20 -13.3 °C -18.2 °C 33924.3 hPa WSW 7.7 km/h 15.6 km/h 54 % 0 mm
03:30 -13.1 °C -18.1 °C 33924.3 hPa WSW 12.9 km/h 15.6 km/h 53 % 0 mm
03:40 -12.9 °C -18.1 °C 33958.2 hPa WSW 15.6 km/h 23.3 km/h 52 % 0 mm
04:10 -12.5 °C -18 °C 33958.2 hPa WSW 18.2 km/h 20.8 km/h 50 % 0 mm
10:24 -12.1 °C -17.8 °C 33958.2 hPa WNW 9.3 km/h 9.3 km/h 49 % 0 mm
10:29 -12.1 °C -17.7 °C 33958.2 hPa SSW 23.8 km/h 23.8 km/h 49 % 0 mm
10:34 -12.1 °C -17.9 °C 33958.2 hPa SSW 15.3 km/h 16.1 km/h 48 % 0 mm
10:39 -12 °C -18 °C 33958.2 hPa WSW 17.9 km/h 17.9 km/h 47 % 0 mm
10:44 -11.9 °C -17.9 °C 33958.2 hPa NE 26.9 km/h 26.9 km/h 47 % 0 mm
10:49 -11.8 °C -17.8 °C 33958.2 hPa WSW 26.9 km/h 26.9 km/h 47 % 0 mm
10:54 -11.7 °C -17.7 °C 33958.2 hPa North 20.9 km/h 20.9 km/h 47 % 0 mm
10:59 -11.7 °C -17.9 °C 33958.2 hPa ENE 25.1 km/h 25.1 km/h 46 % 0 mm
11:04 -11.6 °C -17.8 °C 33958.2 hPa WNW 23.8 km/h 23.8 km/h 46 % 0 mm
11:09 -11.5 °C -17.7 °C 33958.2 hPa ENE 20.9 km/h 20.9 km/h 46 % 0 mm
11:15 -11.3 °C -17.6 °C 33958.2 hPa SSW 17.9 km/h 17.9 km/h 46 % 0 mm
11:27 -11.2 °C -17.7 °C 33958.2 hPa SW 15 km/h 15 km/h 45 % 0 mm
11:32 -11.1 °C -17.5 °C 33958.2 hPa SW 20.9 km/h 20.9 km/h 45 % 0 mm
11:37 -10.9 °C -17.3 °C 33958.2 hPa WSW 15 km/h 15 km/h 45 % 0 mm
11:42 -10.9 °C -17.3 °C 33958.2 hPa North 15 km/h 15 km/h 45 % 0 mm
11:47 -10.9 °C -17.6 °C 33958.2 hPa WSW 20.9 km/h 20.9 km/h 44 % 0 mm
11:53 -10.7 °C -17.1 °C 33958.2 hPa WSW 17.9 km/h 17.9 km/h 45 % 0 mm
11:58 -10.7 °C -17.4 °C 33958.2 hPa SSW 20.9 km/h 20.9 km/h 44 % 0 mm
12:03 -10.8 °C -17.4 °C 33958.2 hPa WNW 37 km/h 37 km/h 44 % 0 mm
12:49 -10.8 °C -17.8 °C 33992.1 hPa ENE 15 km/h 15 km/h 42 % 0 mm
12:54 -10.8 °C -17.6 °C 33992.1 hPa SW 15 km/h 15 km/h 43 % 0 mm
12:59 -10.6 °C -17.4 °C 33992.1 hPa SSW 11.9 km/h 11.9 km/h 43 % 0 mm
13:04 -10.3 °C -17.1 °C 33992.1 hPa NW 20.9 km/h 20.9 km/h 43 % 0 mm
13:09 -10.3 °C -17.6 °C 33992.1 hPa ENE 25.9 km/h 25.9 km/h 41 % 0 mm
13:14 -10.4 °C -17.7 °C 33958.2 hPa WNW 25.9 km/h 25.9 km/h 41 % 0 mm
13:19 -10.4 °C -17.7 °C 33958.2 hPa West 15 km/h 15 km/h 41 % 0 mm
13:24 -10.3 °C -17.5 °C 33958.2 hPa SW 9 km/h 9 km/h 41 % 0 mm
13:29 -10.2 °C -17.4 °C 33958.2 hPa WSW 17.9 km/h 17.9 km/h 41 % 0 mm
13:34 -10.1 °C -17.6 °C 33958.2 hPa WSW 20.9 km/h 20.9 km/h 40 % 0 mm
13:39 -10.2 °C -17.7 °C 33958.2 hPa SW 15 km/h 15 km/h 40 % 0 mm
13:44 -10 °C -17.4 °C 33958.2 hPa WSW 15 km/h 15 km/h 40 % 0 mm
13:49 -9.9 °C -17.3 °C 33958.2 hPa WSW 15 km/h 15 km/h 40 % 0 mm
13:54 -9.9 °C -17.6 °C 33958.2 hPa SW 17.9 km/h 17.9 km/h 39 % 0 mm
13:59 -9.9 °C -17.8 °C 33958.2 hPa SW 29.8 km/h 29.8 km/h 38 % 0 mm
14:05 -9.9 °C -17.6 °C 33958.2 hPa WSW 15.6 km/h 31.1 km/h 39 % 0 mm
14:10 -9.8 °C -17.5 °C 33958.2 hPa West 15 km/h 15 km/h 39 % 0 mm
14:15 -9.7 °C -17.3 °C 33958.2 hPa WNW 17.9 km/h 17.9 km/h 39 % 0 mm
14:20 -9.7 °C -17.4 °C 33958.2 hPa West 15.6 km/h 25.9 km/h 39 % 0 mm
14:25 -9.7 °C -17.3 °C 33958.2 hPa SSE 20.3 km/h 20.3 km/h 39 % 0 mm
14:30 -9.7 °C -17.4 °C 33958.2 hPa South 32.8 km/h 32.8 km/h 39 % 0 mm
14:35 -9.6 °C -17.5 °C 33958.2 hPa SW 29.8 km/h 29.8 km/h 38 % 0 mm
14:40 -9.7 °C -17.6 °C 33958.2 hPa West 18.3 km/h 18.3 km/h 38 % 0 mm
14:45 -9.7 °C -17.6 °C 33958.2 hPa WSW 29.8 km/h 29.8 km/h 38 % 0 mm
14:50 -9.6 °C -17.4 °C 33958.2 hPa WSW 23.8 km/h 23.8 km/h 38 % 0 mm
14:55 -9.6 °C -17.4 °C 33958.2 hPa WNW 32.8 km/h 32.8 km/h 38 % 0 mm
15:00 -9.6 °C -17.4 °C 33958.2 hPa WSW 23.8 km/h 23.8 km/h 38 % 0 mm
15:05 -9.6 °C -17.5 °C 33958.2 hPa WSW 17.9 km/h 17.9 km/h 38 % 0 mm
15:10 -9.6 °C -17.4 °C 33958.2 hPa West 23.8 km/h 23.8 km/h 38 % 0 mm
15:15 -9.6 °C -17.4 °C 33958.2 hPa West 26.9 km/h 26.9 km/h 38 % 0 mm
15:20 -9.6 °C -17.4 °C 33958.2 hPa WSW 26.9 km/h 26.9 km/h 38 % 0 mm
15:25 -9.4 °C -17.3 °C 33958.2 hPa WSW 17.9 km/h 17.9 km/h 38 % 0 mm
15:30 -9.1 °C -16.8 °C 33958.2 hPa NW 15 km/h 15 km/h 39 % 0 mm
15:35 -9.1 °C -17.1 °C 33958.2 hPa SW 15 km/h 15 km/h 38 % 0 mm
15:40 -9.1 °C -17 °C 33958.2 hPa WNW 20.9 km/h 20.9 km/h 38 % 0 mm
15:50 -9.1 °C -17.3 °C 33958.2 hPa WSW 23.8 km/h 23.8 km/h 37 % 0 mm
15:55 -9.2 °C -17.3 °C 33958.2 hPa WSW 15 km/h 15 km/h 37 % 0 mm
16:00 -8.9 °C -17.1 °C 33958.2 hPa West 15 km/h 15 km/h 37 % 0 mm
16:10 -9 °C -17.2 °C 33958.2 hPa SW 15 km/h 15 km/h 37 % 0 mm
16:15 -8.7 °C -16.9 °C 33958.2 hPa SW 9 km/h 9 km/h 37 % 0 mm
16:20 -8.8 °C -17.2 °C 33958.2 hPa West 29.8 km/h 29.8 km/h 36 % 0 mm
16:30 -9.1 °C -17.4 °C 33958.2 hPa WSW 17.9 km/h 17.9 km/h 36 % 0 mm
16:35 -9.1 °C -17.4 °C 33958.2 hPa SSW 17.9 km/h 17.9 km/h 36 % 0 mm
16:40 -9.2 °C -17.5 °C 33958.2 hPa WSW 11.9 km/h 11.9 km/h 36 % 0 mm
16:45 -9.2 °C -17.7 °C 33958.2 hPa WNW 20.9 km/h 20.9 km/h 35 % 0 mm
16:50 -9.3 °C -17.8 °C 33958.2 hPa SW 11.9 km/h 11.9 km/h 35 % 0 mm
16:55 -9.4 °C -17.9 °C 33958.2 hPa SW 23.8 km/h 23.8 km/h 35 % 0 mm
17:00 -9.2 °C -17.8 °C 33958.2 hPa WSW 20.9 km/h 20.9 km/h 35 % 0 mm
17:05 -9.2 °C -17.8 °C 33958.2 hPa West 9 km/h 9 km/h 35 % 0 mm
17:10 -9.1 °C -17.4 °C 33958.2 hPa WSW 9.3 km/h 9.3 km/h 36 % 0 mm
17:15 -9.2 °C -17.8 °C 33958.2 hPa SSW 15.3 km/h 15.3 km/h 35 % 0 mm
17:20 -9.4 °C -17.9 °C 33958.2 hPa WSW 29.8 km/h 29.8 km/h 35 % 0 mm
17:25 -9.5 °C -18 °C 33958.2 hPa WNW 11.9 km/h 11.9 km/h 35 % 0 mm
17:30 -9.6 °C -18.1 °C 33958.2 hPa WSW 23.8 km/h 23.8 km/h 35 % 0 mm
17:35 -9.7 °C -18.2 °C 33958.2 hPa SW 9.8 km/h 9.8 km/h 35 % 0 mm
17:40 -9.8 °C -18.3 °C 33958.2 hPa West 15 km/h 15 km/h 35 % 0 mm
17:45 -9.8 °C -18.3 °C 33992.1 hPa South 20.9 km/h 20.9 km/h 35 % 0 mm
17:50 -9.9 °C -18.2 °C 33992.1 hPa SW 6 km/h 6 km/h 36 % 0 mm
17:55 -9.8 °C -18.1 °C 33992.1 hPa SW 9 km/h 9 km/h 36 % 0 mm
18:00 -9.8 °C -18.1 °C 33992.1 hPa West 3.1 km/h   36 % 0 mm
18:05 -9.9 °C -18.2 °C 33992.1 hPa WSW 9 km/h 9 km/h 36 % 0 mm
18:10 -10.1 °C -18.3 °C 33992.1 hPa WSW 9 km/h 9 km/h 36 % 0 mm
18:15 -10.2 °C -18.4 °C 33992.1 hPa West 35.7 km/h 35.7 km/h 36 % 0 mm
18:20 -10.4 °C -18.8 °C 33992.1 hPa WSW 11.9 km/h 11.9 km/h 35 % 0 mm
18:25 -10.6 °C -18.9 °C 33992.1 hPa WSW 12.7 km/h 12.7 km/h 35 % 0 mm
18:30 -10.7 °C -19.1 °C 33958.2 hPa West 15 km/h 15 km/h 35 % 0 mm
18:35 -10.8 °C -19 °C 33958.2 hPa WSW 15 km/h 15 km/h 36 % 0 mm
18:40 -10.9 °C -19.1 °C 33958.2 hPa North 15 km/h 15 km/h 36 % 0 mm
18:45 -11 °C -19.1 °C 33992.1 hPa WSW 11.9 km/h 11.9 km/h 36 % 0 mm
18:50 -11.2 °C -19.3 °C 33992.1 hPa ENE 11.9 km/h 11.9 km/h 36 % 0 mm
18:55 -11.2 °C -19.1 °C 33992.1 hPa West 11.9 km/h 12.7 km/h 37 % 0 mm
19:00 -11.3 °C -19.2 °C 33992.1 hPa SW 15 km/h 15 km/h 37 % 0 mm
19:05 -11.4 °C -19.3 °C 33992.1 hPa SW 9 km/h 9 km/h 37 % 0 mm
19:10 -11.4 °C -19.1 °C 33992.1 hPa SW 9 km/h 9 km/h 38 % 0 mm
19:15 -11.5 °C -19.2 °C 33992.1 hPa West 9 km/h 9 km/h 38 % 0 mm
19:20 -11.6 °C -19.3 °C 33992.1 hPa WSW 11.9 km/h 11.9 km/h 38 % 0 mm
19:25 -11.7 °C -19.3 °C 33992.1 hPa WSW 6 km/h 6 km/h 38 % 0 mm
19:30 -11.7 °C -19.3 °C 33992.1 hPa West 9 km/h 9 km/h 38 % 0 mm
19:35 -11.8 °C -19.2 °C 33992.1 hPa WSW 9 km/h 9 km/h 39 % 0 mm
19:40 -11.8 °C -19.3 °C 33992.1 hPa West 8.5 km/h 8.5 km/h 39 % 0 mm
19:45 -11.9 °C -19.3 °C 34029.3 hPa West 9 km/h 9 km/h 39 % 0 mm
19:50 -11.9 °C -19.4 °C 34029.3 hPa West 11.9 km/h 11.9 km/h 39 % 0 mm
19:55 -11.9 °C -19.2 °C 34029.3 hPa West 15.6 km/h 16.1 km/h 40 % 0 mm
20:00 -11.9 °C -19.2 °C 33992.1 hPa WSW 11.9 km/h 11.9 km/h 40 % 0 mm
20:05 -12 °C -19.3 °C 33992.1 hPa WNW 9 km/h 9 km/h 40 % 0 mm
20:10 -12 °C -19.1 °C 33992.1 hPa WSW 15 km/h 15 km/h 41 % 0 mm
20:15 -12 °C -19.1 °C 34029.3 hPa SSW 26.9 km/h 26.9 km/h 41 % 0 mm
20:20 -12.1 °C -19.1 °C 34029.3 hPa West 15 km/h 15 km/h 41 % 0 mm
20:25 -12.1 °C -19.2 °C 34029.3 hPa West 15 km/h 15 km/h 41 % 0 mm
20:30 -12.1 °C -19.2 °C 34029.3 hPa WSW 15 km/h 15 km/h 41 % 0 mm
20:35 -12.1 °C -19.2 °C 34029.3 hPa WSW 15 km/h 15 km/h 41 % 0 mm
20:40 -12.2 °C -19.2 °C 34029.3 hPa WSW 15 km/h 15 km/h 41 % 0 mm
20:45 -12.2 °C -19.2 °C 34029.3 hPa WSW 16.1 km/h 16.1 km/h 41 % 0 mm
20:50 -12.2 °C -19.4 °C 34029.3 hPa WSW 20.9 km/h 20.9 km/h 40 % 0 mm
20:55 -12.2 °C -19.4 °C 34029.3 hPa WSW 11.9 km/h 11.9 km/h 40 % 0 mm
21:00 -12.2 °C -19.4 °C 34029.3 hPa West 15 km/h 15 km/h 40 % 0 mm
21:05 -12.3 °C -19.3 °C 34029.3 hPa West 17.9 km/h 17.9 km/h 41 % 0 mm
21:10 -12.3 °C -19.3 °C 34029.3 hPa SSW 20.9 km/h 20.9 km/h 41 % 0 mm
21:15 -12.3 °C -19.3 °C 34063.2 hPa WSW 15 km/h 15 km/h 41 % 0 mm
21:20 -12.3 °C -19.3 °C 34063.2 hPa West 20.9 km/h 20.9 km/h 41 % 0 mm
21:25 -12.3 °C -19.2 °C 34063.2 hPa WSW 15 km/h 15.3 km/h 42 % 0 mm
21:30 -12.4 °C -19.2 °C 34029.3 hPa SW 23.8 km/h 23.8 km/h 42 % 0 mm
21:35 -12.4 °C -19.2 °C 34029.3 hPa WSW 11.9 km/h 11.9 km/h 42 % 0 mm
21:40 -12.4 °C -19.3 °C 34029.3 hPa SW 17.9 km/h 17.9 km/h 42 % 0 mm
21:50 -12.5 °C -19.2 °C 34063.2 hPa WSW 15 km/h 15 km/h 43 % 0 mm
21:55 -12.6 °C -19.2 °C 34063.2 hPa WSW 20.9 km/h 20.9 km/h 43 % 0 mm
22:00 -12.6 °C -19.3 °C 34063.2 hPa SW 15 km/h 15 km/h 43 % 0 mm
22:05 -12.7 °C -19.1 °C 34063.2 hPa West 15 km/h 15 km/h 44 % 0 mm
22:10 -12.7 °C -19.1 °C 34063.2 hPa NW 20.9 km/h 20.9 km/h 44 % 0 mm
22:15 -12.7 °C -19.2 °C 34063.2 hPa SW 19.2 km/h 19.2 km/h 44 % 0 mm
22:20 -12.8 °C -19.2 °C 34063.2 hPa SW 15 km/h 15 km/h 44 % 0 mm
22:25 -12.8 °C -19.2 °C 34063.2 hPa SW 9 km/h 11.1 km/h 44 % 0 mm
22:30 -12.8 °C -19.3 °C 34029.3 hPa WSW 9 km/h 9 km/h 44 % 0 mm
22:35 -12.9 °C -19.3 °C 34029.3 hPa SSW 14 km/h 14 km/h 44 % 0 mm
22:40 -12.9 °C -19.2 °C 34029.3 hPa WSW 15 km/h 15 km/h 45 % 0 mm
22:45 -13 °C -19.3 °C 34063.2 hPa ENE 15 km/h 15 km/h 45 % 0 mm
22:50 -13 °C -19.3 °C 34063.2 hPa NNE 15 km/h 15 km/h 45 % 0 mm
22:55 -13.1 °C -19.3 °C 34063.2 hPa WNW 3.7 km/h 3.7 km/h 45 % 0 mm
23:00 -13.1 °C -19.4 °C 34063.2 hPa West 14 km/h 14 km/h 45 % 0 mm
23:05 -13.1 °C -19.4 °C 34063.2 hPa SW 3.1 km/h 3.1 km/h 45 % 0 mm
23:10 -13.2 °C -19.4 °C 34063.2 hPa SW 9.8 km/h 9.8 km/h 45 % 0 mm
23:15 -13.2 °C -19.5 °C 34097 hPa West 9.8 km/h 9.8 km/h 45 % 0 mm
23:20 -13.2 °C -19.5 °C 34097 hPa SW 6 km/h 6 km/h 45 % 0 mm
23:25 -13.3 °C -19.5 °C 34097 hPa WSW 6 km/h 6 km/h 45 % 0 mm
23:30 -13.3 °C -19.3 °C 34097 hPa WNW 9 km/h 9 km/h 46 % 0 mm
23:40 -13.4 °C -19.5 °C 34097 hPa SW 3.1 km/h 3.1 km/h 46 % 0 mm
23:45 -13.4 °C -19.5 °C 34063.2 hPa WNW 6 km/h 6 km/h 46 % 0 mm
Meteo Sesrovires
Elogis d' Weather Underground - 1.5 mb

Guio original per  Jim McMurry - jmcmurry@mwt.net Adaptat per a la plantilla per  Wim van der Kuil - Leuven-Template.eu

Trobareu la nostra informacio del temps tambe a:

Weather Underground

AWEKAS